Time,TemperatureF,DewpointF,PressureIn,WindDirection,WindDirectionDegrees,WindSpeedMPH,WindSpeedGustMPH,Humidity,HourlyPrecipIn,Conditions,Clouds,dailyrainin,SoftwareType,DateUTC
2013-08-16 06:00:00,64.0,-99.9,30.12,WSW,240,10.0,-999.0,-999,-99.99,,,-99.99,,2013-08-16 11:00:00,
2013-08-16 06:42:00,64.0,-99.9,30.12,WSW,240,10.0,-999.0,-999,-99.99,,,-99.99,,2013-08-16 11:42:00,
2013-08-16 06:52:00,64.0,-99.9,30.12,WSW,240,10.0,-999.0,-999,-99.99,,,-99.99,,2013-08-16 11:52:00,
2013-08-16 07:00:00,62.0,-99.9,30.13,South,170,8.0,-999.0,-999,-99.99,,,-99.99,,2013-08-16 12:00:00,
2013-08-16 07:42:00,62.0,-99.9,30.13,South,170,8.0,-999.0,-999,-99.99,,,-99.99,,2013-08-16 12:42:00,
2013-08-16 07:52:00,62.0,-99.9,30.13,South,170,8.0,-999.0,-999,-99.99,,,-99.99,,2013-08-16 12:52:00,
2013-08-16 08:00:00,62.0,-99.9,30.15,South,180,8.0,-999.0,-999,-99.99,,,-99.99,,2013-08-16 13:00:00,
2013-08-16 08:42:00,62.0,-99.9,30.15,South,180,8.0,-999.0,-999,-99.99,,,-99.99,,2013-08-16 13:42:00,
2013-08-16 08:53:00,62.0,-99.9,30.15,South,180,8.0,-999.0,-999,-99.99,,,-99.99,,2013-08-16 13:53:00,
2013-08-16 09:00:00,62.0,-99.9,30.15,SSW,200,7.0,-999.0,-999,-99.99,,,-99.99,,2013-08-16 14:00:00,
2013-08-16 09:42:00,62.0,-99.9,30.15,SSW,200,7.0,-999.0,-999,-99.99,,,-99.99,,2013-08-16 14:42:00,
2013-08-16 09:52:00,62.0,-99.9,30.15,SSW,200,7.0,-999.0,-999,-99.99,,,-99.99,,2013-08-16 14:52:00,
2013-08-16 10:00:00,63.0,-99.9,30.16,South,170,2.0,-999.0,-999,-99.99,,,-99.99,,2013-08-16 15:00:00,
2013-08-16 10:43:00,63.0,-99.9,30.16,South,170,2.0,-999.0,-999,-99.99,,,-99.99,,2013-08-16 15:43:00,
2013-08-16 10:56:00,63.0,-99.9,30.16,South,170,2.0,-999.0,-999,-99.99,,,-99.99,,2013-08-16 15:56:00,
2013-08-16 11:00:00,68.0,-99.9,30.16,NE,40,3.0,-999.0,-999,-99.99,,,-99.99,,2013-08-16 16:00:00,
2013-08-16 11:44:00,68.0,-99.9,30.16,NE,40,3.0,-999.0,-999,-99.99,,,-99.99,,2013-08-16 16:44:00,
2013-08-16 11:57:00,68.0,-99.9,30.16,NE,40,3.0,-999.0,-999,-99.99,,,-99.99,,2013-08-16 16:57:00,
2013-08-16 12:00:00,73.0,-99.9,30.16,NNE,30,5.0,-999.0,-999,-99.99,,,-99.99,,2013-08-16 17:00:00,
2013-08-16 12:47:00,73.0,-99.9,30.16,NNE,30,5.0,-999.0,-999,-99.99,,,-99.99,,2013-08-16 17:47:00,
2013-08-16 13:00:00,78.0,-99.9,30.15,SW,230,3.0,-999.0,-999,-99.99,,,-99.99,,2013-08-16 18:00:00,
2013-08-16 13:50:00,-999.0,-99.9,30.15,SW,230,3.0,-999.0,-999,-99.99,,,-99.99,,2013-08-16 18:50:00,
2013-08-16 14:00:00,79.0,-99.9,30.13,South,180,9.0,-999.0,-999,-99.99,,,-99.99,,2013-08-16 19:00:00,
2013-08-16 14:47:00,79.0,-99.9,30.13,South,180,9.0,-999.0,-999,-99.99,,,-99.99,,2013-08-16 19:47:00,
2013-08-16 14:55:00,79.0,-99.9,30.13,South,180,9.0,-999.0,-999,-99.99,,,-99.99,,2013-08-16 19:55:00,
2013-08-16 15:00:00,82.0,-99.9,30.12,SSW,210,8.0,-999.0,-999,-99.99,,,-99.99,,2013-08-16 20:00:00,
2013-08-16 15:44:00,82.0,-99.9,30.12,SSW,210,8.0,-999.0,-999,-99.99,,,-99.99,,2013-08-16 20:44:00,
2013-08-16 15:52:00,82.0,-99.9,30.12,SSW,210,8.0,-999.0,-999,-99.99,,,-99.99,,2013-08-16 20:52:00,
2013-08-16 16:00:00,83.0,-99.9,30.12,SSW,200,8.0,-999.0,-999,-99.99,,,-99.99,,2013-08-16 21:00:00,
2013-08-16 16:40:00,-999.0,-99.9,-100.00,SSW,200,8.0,-999.0,-999,-99.99,,,-99.99,,2013-08-16 21:40:00,
2013-08-16 16:54:00,83.0,-99.9,30.12,SSW,200,8.0,-999.0,-999,-99.99,,,-99.99,,2013-08-16 21:54:00,
2013-08-16 17:00:00,83.0,-99.9,30.12,SW,230,10.0,-999.0,-999,-99.99,,,-99.99,,2013-08-16 22:00:00,
2013-08-16 17:44:00,83.0,-99.9,30.12,SW,230,10.0,-999.0,-999,-99.99,,,-99.99,,2013-08-16 22:44:00,
2013-08-16 17:53:00,83.0,-99.9,30.12,SW,230,10.0,-999.0,-999,-99.99,,,-99.99,,2013-08-16 22:53:00,
2013-08-16 18:00:00,83.0,-99.9,30.12,SSW,210,8.0,-999.0,-999,-99.99,,,-99.99,,2013-08-16 23:00:00,
2013-08-16 18:42:00,83.0,-99.9,30.12,SSW,210,8.0,-999.0,-999,-99.99,,,-99.99,,2013-08-16 23:42:00,
2013-08-16 18:52:00,83.0,-99.9,30.12,SSW,210,8.0,-999.0,-999,-99.99,,,-99.99,,2013-08-16 23:52:00,
2013-08-16 23:00:00,72.0,-99.9,30.14,SW,220,7.0,-999.0,-999,-99.99,,,-99.99,,2013-08-17 04:00:00,
2013-08-16 23:44:00,72.0,-99.9,30.14,SW,220,7.0,-999.0,-999,-99.99,,,-99.99,,2013-08-17 04:44:00,
2013-08-16 23:53:00,72.0,-99.9,30.14,SW,220,7.0,-999.0,-999,-99.99,,,-99.99,,2013-08-17 04:53:00,